Terminal Aerodrome Forecast
Issued by NWS Sterling, VA

Home | Current Version | Previous Version | Text Only | Print | Product List | Glossary On
Versions: 1 2 3 4 5 6 7 8 9 10 11 12 13 14 15 16 17 18 19 20 21 22 23 24 25 26
379
FTUS41 KLWX 291722
TAFBWI
TAF
KBWI 291722Z 2918/3024 06004KT P6SM -DZ OVC008
     FM300300 06004KT 3SM -DZ BR OVC008
     FM301200 06006KT 6SM BR BKN010
     FM301500 07005KT P6SM BKN020
     FM302100 13006KT P6SM OVC050=

USA.gov is the U.S. government's official web portal to all federal, state and local government web resources and services.